• Join FlightAware (Why Join?)
  • Login
  • US Flag 
08:51AM EDT


 

Airport Tracker/Info


-or-


 

Live Flight TrackerFlight Track Log ✈ N75ZM ✈ 09-Aug-2013 ✈ KBKL - KYIP

Flight Track Log - Related Links

Times and Time Zones

All times are in EDT time to prevent confusion due to time zone crossing. See the N75ZM flight status page for this flight to view local times or setup timezone preferences in your user account.

Time Position Orientation Groundspeed Altitude Reporting Facility
EDT Latitude Longitude Course Direction KTS MPH feet Rate Location/Type
12:43PM 41.5275 -81.6675 359° North 104 120 1,300  Level Cleveland Center
12:44PM 41.5525 -81.6681 359° North 124 143 2,100 960 Climbing Cleveland Center
12:45PM 41.5858 -81.6853 339° North 130 150 3,100 1,020 Climbing Cleveland Center
12:46PM 41.6061 -81.7161 311° West 127 146 4,200 1,080 Climbing Cleveland Center
12:47PM 41.6164 -81.7553 289° West 118 136 5,200 960 Climbing Cleveland Center
12:48PM 41.6261 -81.7969 287° West 121 139 6,100 420 Climbing Cleveland Center
12:49PM 41.6383 -81.8417 290° West 155 178 6,100  Level Cleveland Center
12:50PM 41.6522 -81.8975 288° West 163 188 6,100  Level Cleveland Center
12:51PM 41.6683 -81.9592 289° West 157 181 6,100  Level Cleveland Center
12:52PM 41.6819 -82.0178 287° West 160 184 6,100  Level Cleveland Center
12:53PM 41.6961 -82.0625 293° West 159 183 6,100  Level Cleveland Center
12:54PM 41.7139 -82.1269 290° West 158 182 6,100  Level Cleveland Center
12:55PM 41.7258 -82.1828 286° West 158 182 6,100  Level Cleveland Center
12:56PM 41.7456 -82.2558 290° West 160 184 6,100  Level Cleveland Center
12:57PM 41.7614 -82.3147 290° West 159 183 6,100  Level Cleveland Center
12:58PM 41.7692 -82.3456 289° West 160 184 6,100  Level Cleveland Center
12:59PM 41.7850 -82.4017 291° West 159 183 6,100  Level Cleveland Center
01:00PM 41.8008 -82.4578 291° West 158 182 6,100  Level Cleveland Center
01:01PM 41.8144 -82.5194 287° West 158 182 6,100  Level Cleveland Center
01:02PM 41.8300 -82.5756 290° West 156 180 6,100  Level Cleveland Center
01:03PM 41.8458 -82.6264 293° West 158 182 6,100 -120 Level Cleveland Center
01:04PM 41.8719 -82.6800 303° West 165 190 5,900 -360 Descending Cleveland Center
01:05PM 41.8853 -82.7419 286° West 170 196 5,400 -420 Descending Cleveland Center
01:06PM 41.8967 -82.8036 284° West 175 201 5,100 -180 Descending Cleveland Center
01:07PM 41.9081 -82.8628 285° West 164 189 5,100  Level Cleveland Center
01:08PM 41.9214 -82.9244 286° West 161 185 5,100  Level Cleveland Center
01:09PM 41.9328 -82.9836 285° West 161 185 5,100  Level Cleveland Center
01:10PM 41.9461 -83.0456 286° West 163 188 5,100 -240 Level Cleveland Center
01:11PM 41.9486 -83.1156 273° West 175 201 4,600 -540 Descending Cleveland Center
01:12PM 41.9492 -83.1825 271° West 176 203 4,100 -540 Descending Cleveland Center
01:13PM 41.9519 -83.2411 274° West 177 204 3,600 -540 Descending Cleveland Center
01:14PM 41.9547 -83.3056 273° West 167 192 3,100 -240 Descending Cleveland Center
01:15PM 41.9553 -83.3669 271° West 154 177 3,200  Climbing Cleveland Center
01:16PM 41.9583 -83.4203 274° West 140 161 3,100 -60 Descending Cleveland Center
01:17PM 41.9633 -83.4681 278° West 137 158 3,100  Level Cleveland Center
01:18PM 41.9789 -83.5133 295° West 132 152 3,200  Climbing Cleveland Center
01:19PM 42.0072 -83.5453 320° Northwest 135 155 3,100 -60 Descending Cleveland Center
01:20PM 42.0333 -83.5772 318° Northwest 142 163 3,100  Level Cleveland Center
01:21PM 42.0764 -83.6131 328° Northwest 144 166 3,100  Level Cleveland Center
01:22PM 42.1011 -83.6169 353° North 137 158 3,100 -180 Level Cleveland Center
01:23PM 42.1553 -83.6167 360° North 170 196 2,800 -540 Descending Cleveland Center
01:24PM 42.1933 -83.5989 19° North 166 191 1,900 -840 Descending Cleveland Center
01:25PM 42.2128 -83.5717 46° Northeast 97 112 1,400 -660 Descending Cleveland Center
01:27PM 42.2393 -83.5310 84° East  Level Estimated
01:34PM 42.2393 -83.5310 90° East  Level Estimated
01:35PM 42.2393 -83.5310 90° East  Level Estimated
01:36PM 42.2393 -83.5310 90° East  Level Estimated